createdAt,value
2017-09-11T00:00:24.614Z,0
2017-09-11T00:01:24.286Z,0
2017-09-11T00:02:25.244Z,0
2017-09-11T00:03:24.897Z,0
2017-09-11T00:04:24.888Z,0
2017-09-11T00:05:24.875Z,0
2017-09-11T00:06:24.849Z,0
2017-09-11T00:07:24.525Z,0
2017-09-11T00:08:24.824Z,0
2017-09-11T00:09:25.457Z,0
2017-09-11T00:10:25.448Z,0
2017-09-11T00:11:24.465Z,0
2017-09-11T00:12:24.807Z,0
2017-09-11T00:13:24.760Z,0
2017-09-11T00:14:24.745Z,0
2017-09-11T00:15:24.423Z,0
2017-09-11T00:16:24.718Z,0
2017-09-11T00:17:24.703Z,0
2017-09-11T00:18:25.010Z,0
2017-09-11T00:19:25.001Z,0
2017-09-11T00:20:24.366Z,0
2017-09-11T00:21:24.338Z,0
2017-09-11T00:22:24.640Z,0
2017-09-11T00:23:24.503Z,0
2017-09-11T00:24:25.252Z,0
2017-09-11T00:25:24.933Z,0
2017-09-11T00:26:24.256Z,0
2017-09-11T00:27:25.208Z,0
2017-09-11T00:28:24.916Z,0
2017-09-11T00:29:24.869Z,0
2017-09-11T00:30:24.528Z,0
2017-09-11T00:31:24.841Z,0
2017-09-11T00:32:24.505Z,0
2017-09-11T00:33:24.499Z,0
2017-09-11T00:34:24.479Z,0
2017-09-11T00:35:24.481Z,0
2017-09-11T00:36:24.784Z,0
2017-09-11T00:37:24.432Z,0
2017-09-11T00:38:24.740Z,0
2017-09-11T00:39:24.405Z,0
2017-09-11T00:40:23.768Z,0
2017-09-11T00:41:24.390Z,0
2017-09-11T00:42:24.367Z,0
2017-09-11T00:43:24.678Z,0
2017-09-11T00:44:24.335Z,0
2017-09-11T00:45:24.009Z,0
2017-09-11T00:46:24.009Z,0
2017-09-11T00:47:24.625Z,0
2017-09-11T00:48:23.962Z,0
2017-09-11T00:49:24.594Z,0
2017-09-11T00:50:24.271Z,0
2017-09-11T00:51:23.612Z,0
2017-09-11T00:52:24.872Z,0
2017-09-11T00:53:24.223Z,0
2017-09-11T00:54:24.216Z,0
2017-09-11T00:55:24.521Z,0
2017-09-11T00:56:23.863Z,0
2017-09-11T00:57:24.857Z,0
2017-09-11T00:58:23.831Z,0
2017-09-11T00:59:24.469Z,0
2017-09-11T01:00:24.135Z,0
2017-09-11T01:01:24.439Z,0
2017-09-11T01:02:24.095Z,0
2017-09-11T01:03:24.421Z,0
2017-09-11T01:04:24.407Z,0
2017-09-11T01:05:24.702Z,0
2017-09-11T01:06:24.696Z,0
2017-09-11T01:07:24.374Z,0
2017-09-11T01:08:24.030Z,0
2017-09-11T01:09:24.324Z,0
2017-09-11T01:10:23.675Z,0
2017-09-11T01:11:23.979Z,0
2017-09-11T01:12:23.967Z,0
2017-09-11T01:13:23.633Z,0
2017-09-11T01:14:24.273Z,0
2017-09-11T01:15:23.931Z,0
2017-09-11T01:16:23.909Z,0
2017-09-11T01:17:24.235Z,0
2017-09-11T01:18:23.887Z,0
2017-09-11T01:19:23.232Z,0
2017-09-11T01:20:24.194Z,0
2017-09-11T01:21:23.849Z,0
2017-09-11T01:22:24.165Z,0
2017-09-11T01:23:23.538Z,0
2017-09-11T01:24:24.126Z,0
2017-09-11T01:25:24.121Z,0
2017-09-11T01:26:23.462Z,0
2017-09-11T01:27:24.102Z,0
2017-09-11T01:28:24.084Z,0
2017-09-11T01:29:23.743Z,0
2017-09-11T01:30:24.061Z,0
2017-09-11T01:31:23.724Z,0
2017-09-11T01:32:23.704Z,0
2017-09-11T01:33:23.689Z,0
2017-09-11T01:34:23.677Z,0
2017-09-11T01:35:24.325Z,0
2017-09-11T01:36:24.307Z,0
2017-09-11T01:37:23.638Z,0
2017-09-11T01:38:23.016Z,0
2017-09-11T01:39:23.611Z,0
2017-09-11T01:40:23.601Z,0
2017-09-11T01:41:23.584Z,0
2017-09-11T01:42:23.887Z,0
2017-09-11T01:43:23.237Z,0
2017-09-11T01:44:23.536Z,0
2017-09-11T01:45:23.846Z,0
2017-09-11T01:46:23.510Z,0
2017-09-11T01:47:23.874Z,0
2017-09-11T01:48:23.816Z,0
2017-09-11T01:49:23.476Z,0
2017-09-11T01:50:23.144Z,0
2017-09-11T01:51:23.133Z,0
2017-09-11T01:52:23.749Z,0
2017-09-11T01:53:23.422Z,0
2017-09-11T01:54:23.736Z,0
2017-09-11T01:55:23.071Z,0
2017-09-11T01:56:23.379Z,0
2017-09-11T01:57:23.363Z,0
2017-09-11T01:58:24.000Z,0
2017-09-11T01:59:23.019Z,0
2017-09-11T02:00:23.642Z,0
2017-09-11T02:01:23.322Z,0
2017-09-11T02:02:23.291Z,0
2017-09-11T02:03:22.963Z,0
2017-09-11T02:04:23.280Z,0
2017-09-11T02:05:23.585Z,0
2017-09-11T02:06:23.248Z,0
2017-09-11T02:07:23.231Z,0
2017-09-11T02:08:23.541Z,0
2017-09-11T02:09:23.202Z,0
2017-09-11T02:10:23.187Z,0
2017-09-11T02:11:23.503Z,0
2017-09-11T02:12:22.850Z,0
2017-09-11T02:13:23.465Z,0
2017-09-11T02:14:23.462Z,0
2017-09-11T02:15:23.130Z,0
2017-09-11T02:16:23.112Z,0
2017-09-11T02:17:23.101Z,0
2017-09-11T02:18:23.087Z,0
2017-09-11T02:19:23.104Z,0
2017-09-11T02:20:23.367Z,0
2017-09-11T02:21:23.047Z,0
2017-09-11T02:22:23.037Z,0
2017-09-11T02:23:22.896Z,0
2017-09-11T02:24:22.689Z,0
2017-09-11T02:25:22.995Z,0
2017-09-11T02:26:22.977Z,0
2017-09-11T02:27:22.963Z,0
2017-09-11T02:28:22.950Z,0
2017-09-11T02:29:23.287Z,0
2017-09-11T02:30:23.247Z,0
2017-09-11T02:31:22.917Z,0
2017-09-11T02:32:23.090Z,0
2017-09-11T02:33:23.193Z,0
2017-09-11T02:34:22.227Z,0
2017-09-11T02:35:23.190Z,0
2017-09-11T02:36:22.827Z,0
2017-09-11T02:37:22.832Z,0
2017-09-11T02:38:22.841Z,0
2017-09-11T02:39:23.113Z,0
2017-09-11T02:40:22.784Z,0
2017-09-11T02:41:23.090Z,0
2017-09-11T02:42:22.757Z,0
2017-09-11T02:43:23.385Z,0
2017-09-11T02:44:23.380Z,0
2017-09-11T02:45:23.037Z,0
2017-09-11T02:46:22.062Z,0
2017-09-11T02:47:22.401Z,0
2017-09-11T02:48:22.355Z,0
2017-09-11T02:49:22.664Z,0
2017-09-11T02:50:22.643Z,0
2017-09-11T02:51:22.958Z,0
2017-09-11T02:52:22.945Z,0
2017-09-11T02:53:22.276Z,0
2017-09-11T02:54:22.918Z,0
2017-09-11T02:55:21.926Z,0
2017-09-11T02:56:21.924Z,0
2017-09-11T02:57:22.566Z,0
2017-09-11T02:58:22.874Z,0
2017-09-11T02:59:23.176Z,0
2017-09-11T03:00:22.516Z,0
2017-09-11T03:01:22.824Z,0
2017-09-11T03:02:22.503Z,0
2017-09-11T03:03:22.793Z,0
2017-09-11T03:04:22.460Z,0
2017-09-11T03:05:22.132Z,0
2017-09-11T03:06:22.758Z,0
2017-09-11T03:07:22.744Z,0
2017-09-11T03:08:22.784Z,0
2017-09-11T03:09:23.047Z,0
2017-09-11T03:10:22.388Z,0
2017-09-11T03:11:22.709Z,0
2017-09-11T03:12:22.346Z,0
2017-09-11T03:13:22.344Z,0
2017-09-11T03:14:22.329Z,0
2017-09-11T03:15:21.987Z,0
2017-09-11T03:16:21.972Z,0
2017-09-11T03:17:22.607Z,0
2017-09-11T03:18:21.613Z,0
2017-09-11T03:19:22.245Z,0
2017-09-11T03:20:22.234Z,0
2017-09-11T03:21:21.915Z,0
2017-09-11T03:22:22.209Z,0
2017-09-11T03:23:22.197Z,0
2017-09-11T03:24:22.831Z,0
2017-09-11T03:25:22.806Z,0
2017-09-11T03:26:22.472Z,0
2017-09-11T03:27:22.470Z,0
2017-09-11T03:28:22.442Z,0
2017-09-11T03:29:21.792Z,0
2017-09-11T03:30:22.440Z,0
2017-09-11T03:31:22.094Z,0
2017-09-11T03:32:22.723Z,0
2017-09-11T03:33:21.733Z,0
2017-09-11T03:34:22.376Z,0
2017-09-11T03:35:21.711Z,0
2017-09-11T03:36:21.696Z,0
2017-09-11T03:37:22.651Z,0
2017-09-11T03:38:21.673Z,0
2017-09-11T03:39:21.669Z,0
2017-09-11T03:40:21.968Z,0
2017-09-11T03:41:21.950Z,0
2017-09-11T03:42:22.259Z,0
2017-09-11T03:43:21.287Z,0
2017-09-11T03:44:22.227Z,0
2017-09-11T03:45:21.930Z,0
2017-09-11T03:46:22.235Z,0
2017-09-11T03:47:22.507Z,0
2017-09-11T03:48:21.867Z,0
2017-09-11T03:49:22.167Z,0
2017-09-11T03:50:21.593Z,0
2017-09-11T03:51:21.182Z,0
2017-09-11T03:52:21.518Z,0
2017-09-11T03:53:21.477Z,0
2017-09-11T03:54:22.096Z,0
2017-09-11T03:55:21.460Z,0
2017-09-11T03:56:21.752Z,0
2017-09-11T03:57:21.410Z,0
2017-09-11T03:58:21.714Z,0
2017-09-11T03:59:21.711Z,0
2017-09-11T04:00:21.693Z,0
2017-09-11T04:01:22.015Z,0
2017-09-11T04:02:21.668Z,0
2017-09-11T04:03:21.323Z,0
2017-09-11T04:04:22.278Z,0
2017-09-11T04:05:22.288Z,0
2017-09-11T04:06:21.975Z,0
2017-09-11T04:07:21.601Z,0
2017-09-11T04:08:21.570Z,0
2017-09-11T04:09:21.251Z,0
2017-09-11T04:10:21.884Z,0
2017-09-11T04:11:21.207Z,0
2017-09-11T04:12:22.192Z,0
2017-09-11T04:13:21.837Z,0
2017-09-11T04:14:21.817Z,0
2017-09-11T04:15:21.476Z,0
2017-09-11T04:16:21.469Z,0
2017-09-11T04:17:21.128Z,0
2017-09-11T04:18:21.442Z,0
2017-09-11T04:19:21.426Z,0
2017-09-11T04:20:21.725Z,0
2017-09-11T04:21:21.062Z,0
2017-09-11T04:22:21.697Z,0
2017-09-11T04:23:21.874Z,0
2017-09-11T04:24:21.029Z,0
2017-09-11T04:25:21.335Z,0
2017-09-11T04:26:20.986Z,0
2017-09-11T04:27:21.632Z,0
2017-09-11T04:28:21.326Z,0
2017-09-11T04:29:21.282Z,0
2017-09-11T04:30:21.895Z,0
2017-09-11T04:31:21.570Z,0
2017-09-11T04:32:21.237Z,0
2017-09-11T04:33:21.853Z,0
2017-09-11T04:34:20.888Z,0
2017-09-11T04:35:21.186Z,0
2017-09-11T04:36:21.168Z,0
2017-09-11T04:37:21.512Z,0
2017-09-11T04:38:20.814Z,0
2017-09-11T04:39:21.447Z,0
2017-09-11T04:40:21.447Z,0
2017-09-11T04:41:21.427Z,0
2017-09-11T04:42:20.763Z,0
2017-09-11T04:43:21.712Z,0
2017-09-11T04:44:21.370Z,0
2017-09-11T04:45:21.428Z,0
2017-09-11T04:46:21.698Z,0
2017-09-11T04:47:21.037Z,0
2017-09-11T04:48:20.994Z,0
2017-09-11T04:49:21.300Z,0
2017-09-11T04:50:20.647Z,0
2017-09-11T04:51:21.277Z,0
2017-09-11T04:52:20.301Z,0
2017-09-11T04:53:20.922Z,0
2017-09-11T04:54:20.582Z,0
2017-09-11T04:55:20.901Z,0
2017-09-11T04:56:21.517Z,0
2017-09-11T04:57:20.536Z,0
2017-09-11T04:58:21.177Z,0
2017-09-11T04:59:21.479Z,0
2017-09-11T05:00:20.817Z,0
2017-09-11T05:01:20.493Z,0
2017-09-11T05:02:21.467Z,0
2017-09-11T05:03:20.800Z,0
2017-09-11T05:04:20.448Z,0
2017-09-11T05:05:21.076Z,0
2017-09-11T05:06:20.737Z,0
2017-09-11T05:07:20.726Z,0
2017-09-11T05:08:20.708Z,5
2017-09-11T05:09:20.367Z,5
2017-09-11T05:10:20.348Z,5
2017-09-11T05:11:20.659Z,5
2017-09-11T05:12:20.318Z,5
2017-09-11T05:13:20.626Z,5
2017-09-11T05:14:20.626Z,0
2017-09-11T05:15:20.944Z,0
2017-09-11T05:16:20.904Z,0
2017-09-11T05:17:19.930Z,0
2017-09-11T05:18:20.558Z,0
2017-09-11T05:19:20.854Z,0
2017-09-11T05:20:20.530Z,0
2017-09-11T05:21:20.831Z,0
2017-09-11T05:22:20.820Z,0
2017-09-11T05:23:20.536Z,5
2017-09-11T05:24:20.790Z,5
2017-09-11T05:25:21.100Z,5
2017-09-11T05:26:20.119Z,5
2017-09-11T05:27:20.429Z,5
2017-09-11T05:28:20.723Z,0
2017-09-11T05:29:20.402Z,5
2017-09-11T05:30:20.400Z,5
2017-09-11T05:31:20.369Z,10
2017-09-11T05:32:20.031Z,10
2017-09-11T05:33:20.378Z,15
2017-09-11T05:34:20.324Z,15
2017-09-11T05:35:20.351Z,15
2017-09-11T05:36:20.969Z,20
2017-09-11T05:37:20.280Z,20
2017-09-11T05:38:20.262Z,20
2017-09-11T05:39:20.571Z,20
2017-09-11T05:40:20.240Z,20
2017-09-11T05:41:20.537Z,20
2017-09-11T05:42:20.523Z,20
2017-09-11T05:43:20.552Z,20
2017-09-11T05:44:19.860Z,20
2017-09-11T05:45:20.161Z,20
2017-09-11T05:46:20.475Z,20
2017-09-11T05:47:20.468Z,20
2017-09-11T05:48:19.798Z,25
2017-09-11T05:49:20.105Z,25
2017-09-11T05:50:19.499Z,25
2017-09-11T05:51:19.758Z,30
2017-09-11T05:52:20.700Z,30
2017-09-11T05:53:20.697Z,30
2017-09-11T05:54:20.358Z,30
2017-09-11T05:55:19.695Z,30
2017-09-11T05:56:20.324Z,30
2017-09-11T05:57:19.983Z,30
2017-09-11T05:58:19.973Z,30
2017-09-11T05:59:20.286Z,25
2017-09-11T06:00:19.953Z,25
2017-09-11T06:01:20.255Z,25
2017-09-11T06:02:20.272Z,25
2017-09-11T06:03:20.226Z,30
2017-09-11T06:04:19.595Z,35
2017-09-11T06:05:19.877Z,35
2017-09-11T06:06:19.859Z,30
2017-09-11T06:07:19.526Z,25
2017-09-11T06:08:20.481Z,30
2017-09-11T06:09:19.502Z,30
2017-09-11T06:10:20.455Z,30
2017-09-11T06:11:19.792Z,30
2017-09-11T06:12:19.457Z,30
2017-09-11T06:13:20.411Z,30
2017-09-11T06:14:20.083Z,35
2017-09-11T06:15:19.420Z,35
2017-09-11T06:16:19.086Z,40
2017-09-11T06:17:19.061Z,45
2017-09-11T06:18:20.024Z,55
2017-09-11T06:19:19.368Z,55
2017-09-11T06:20:19.994Z,60
2017-09-11T06:21:19.328Z,65
2017-09-11T06:22:19.960Z,70
2017-09-11T06:23:20.582Z,70
2017-09-11T06:24:19.614Z,70
2017-09-11T06:25:20.242Z,70
2017-09-11T06:26:19.582Z,75
2017-09-11T06:27:19.241Z,75
2017-09-11T06:28:19.571Z,80
2017-09-11T06:29:19.545Z,85
2017-09-11T06:30:19.525Z,90
2017-09-11T06:31:19.529Z,95
2017-09-11T06:32:19.498Z,95
2017-09-11T06:33:19.160Z,90
2017-09-11T06:34:19.791Z,85
2017-09-11T06:35:20.100Z,90
2017-09-11T06:36:19.115Z,95
2017-09-11T06:37:19.429Z,90
2017-09-11T06:38:20.058Z,85
2017-09-11T06:39:19.735Z,90
2017-09-11T06:40:19.381Z,100
2017-09-11T06:41:19.682Z,100
2017-09-11T06:42:19.673Z,100
2017-09-11T06:43:19.660Z,100
2017-09-11T06:44:19.327Z,90
2017-09-11T06:45:19.641Z,90
2017-09-11T06:46:18.984Z,90
2017-09-11T06:47:19.632Z,85
2017-09-11T06:48:19.930Z,90
2017-09-11T06:49:19.259Z,90
2017-09-11T06:50:19.256Z,90
2017-09-11T06:51:19.233Z,95
2017-09-11T06:52:18.903Z,95
2017-09-11T06:53:19.533Z,90
2017-09-11T06:54:19.185Z,90
2017-09-11T06:55:18.868Z,90
2017-09-11T06:56:19.173Z,90
2017-09-11T06:57:19.176Z,95
2017-09-11T06:58:19.454Z,90
2017-09-11T06:59:18.811Z,85
2017-09-11T07:00:18.793Z,80
2017-09-11T07:01:19.741Z,75
2017-09-11T07:02:19.095Z,75
2017-09-11T07:03:19.072Z,75
2017-09-11T07:04:19.414Z,75
2017-09-11T07:05:19.362Z,75
2017-09-11T07:06:19.036Z,70
2017-09-11T07:07:18.690Z,80
2017-09-11T07:08:19.006Z,90
2017-09-11T07:09:18.662Z,90
2017-09-11T07:10:18.979Z,95
2017-09-11T07:11:19.621Z,95
2017-09-11T07:12:18.948Z,95
2017-09-11T07:13:19.570Z,85
2017-09-11T07:14:19.575Z,85
2017-09-11T07:15:18.908Z,85
2017-09-11T07:16:18.571Z,90
2017-09-11T07:17:18.557Z,75
2017-09-11T07:18:19.191Z,65
2017-09-11T07:19:18.858Z,75
2017-09-11T07:20:19.165Z,80
2017-09-11T07:21:18.835Z,80
2017-09-11T07:22:18.805Z,95
2017-09-11T07:23:18.797Z,115
2017-09-11T07:24:19.434Z,120
2017-09-11T07:25:19.102Z,105
2017-09-11T07:26:18.768Z,115
2017-09-11T07:27:18.742Z,115
2017-09-11T07:28:19.058Z,130
2017-09-11T07:29:19.037Z,155
2017-09-11T07:30:19.027Z,165
2017-09-11T07:31:18.369Z,165
2017-09-11T07:32:18.353Z,145
2017-09-11T07:33:19.320Z,140
2017-09-11T07:34:18.970Z,140
2017-09-11T07:35:18.965Z,140
2017-09-11T07:36:18.949Z,130
2017-09-11T07:37:18.610Z,135
2017-09-11T07:38:18.914Z,150
2017-09-11T07:39:18.579Z,165
2017-09-11T07:40:18.248Z,165
2017-09-11T07:41:18.561Z,170
2017-09-11T07:42:18.228Z,160
2017-09-11T07:43:18.536Z,145
2017-09-11T07:44:18.204Z,155
2017-09-11T07:45:19.138Z,165
2017-09-11T07:46:18.492Z,155
2017-09-11T07:47:18.812Z,145
2017-09-11T07:48:18.476Z,140
2017-09-11T07:49:18.141Z,135
2017-09-11T07:50:18.768Z,130
2017-09-11T07:51:18.429Z,130
2017-09-11T07:52:18.743Z,100
2017-09-11T07:53:18.081Z,100
2017-09-11T07:54:18.713Z,105
2017-09-11T07:55:18.697Z,100
2017-09-11T07:56:18.397Z,130
2017-09-11T07:57:18.042Z,105
2017-09-11T07:58:18.332Z,135
2017-09-11T07:59:18.974Z,155
2017-09-11T08:00:18.312Z,125
2017-09-11T08:01:18.301Z,150
2017-09-11T08:02:18.299Z,150
2017-09-11T08:03:18.918Z,150
2017-09-11T08:04:18.575Z,160
2017-09-11T08:05:18.585Z,135
2017-09-11T08:06:18.559Z,120
2017-09-11T08:07:17.574Z,140
2017-09-11T08:08:18.211Z,185
2017-09-11T08:09:18.518Z,200
2017-09-11T08:10:18.830Z,210
2017-09-11T08:11:17.862Z,310
2017-09-11T08:12:18.155Z,200
2017-09-11T08:13:18.463Z,160
2017-09-11T08:14:18.456Z,160
2017-09-11T08:15:18.765Z,160
2017-09-11T08:16:17.784Z,340
2017-09-11T08:17:18.082Z,140
2017-09-11T08:18:18.720Z,145
2017-09-11T08:19:18.068Z,430
2017-09-11T08:20:18.060Z,170
2017-09-11T08:21:17.718Z,210
2017-09-11T08:22:17.710Z,255
2017-09-11T08:23:18.020Z,270
2017-09-11T08:24:18.646Z,175
2017-09-11T08:25:17.997Z,140
2017-09-11T08:26:18.313Z,135
2017-09-11T08:27:17.968Z,220
2017-09-11T08:28:17.959Z,180
2017-09-11T08:29:18.283Z,200
2017-09-11T08:30:18.581Z,150
2017-09-11T08:31:17.598Z,165
2017-09-11T08:32:17.586Z,180
2017-09-11T08:33:17.928Z,135
2017-09-11T08:34:17.881Z,110
2017-09-11T08:35:17.549Z,100
2017-09-11T08:36:17.855Z,135
2017-09-11T08:37:17.528Z,180
2017-09-11T08:38:17.509Z,160
2017-09-11T08:39:18.156Z,185
2017-09-11T08:40:17.807Z,165
2017-09-11T08:41:17.483Z,125
2017-09-11T08:42:18.106Z,145
2017-09-11T08:43:18.439Z,160
2017-09-11T08:44:18.110Z,155
2017-09-11T08:45:17.430Z,195
2017-09-11T08:46:17.759Z,210
2017-09-11T08:47:18.051Z,205
2017-09-11T08:48:18.028Z,210
2017-09-11T08:49:18.024Z,210
2017-09-11T08:50:18.334Z,220
2017-09-11T08:51:17.364Z,265
2017-09-11T08:52:17.670Z,215
2017-09-11T08:53:17.972Z,215
2017-09-11T08:54:17.645Z,185
2017-09-11T08:55:17.629Z,135
2017-09-11T08:56:17.620Z,150
2017-09-11T08:57:17.278Z,140
2017-09-11T08:58:18.237Z,130
2017-09-11T08:59:17.587Z,135
2017-09-11T09:00:17.573Z,145
2017-09-11T09:01:17.545Z,145
2017-09-11T09:02:18.187Z,145
2017-09-11T09:03:17.537Z,145
2017-09-11T09:04:17.855Z,150
2017-09-11T09:05:17.187Z,185
2017-09-11T09:06:17.172Z,205
2017-09-11T09:07:17.481Z,200
2017-09-11T09:08:17.470Z,170
2017-09-11T09:09:17.142Z,155
2017-09-11T09:10:17.786Z,195
2017-09-11T09:11:16.781Z,200
2017-09-11T09:12:18.064Z,170
2017-09-11T09:13:17.418Z,220
2017-09-11T09:14:17.080Z,235
2017-09-11T09:15:17.384Z,240
2017-09-11T09:16:17.385Z,295
2017-09-11T09:17:17.682Z,265
2017-09-11T09:18:17.344Z,225
2017-09-11T09:19:17.667Z,180
2017-09-11T09:20:17.984Z,210
2017-09-11T09:21:17.642Z,235
2017-09-11T09:22:17.636Z,255
2017-09-11T09:23:17.617Z,290
2017-09-11T09:24:17.611Z,245
2017-09-11T09:25:16.952Z,170
2017-09-11T09:26:17.267Z,205
2017-09-11T09:27:17.252Z,310
2017-09-11T09:28:16.930Z,340
2017-09-11T09:29:17.229Z,340
2017-09-11T09:30:16.584Z,325
2017-09-11T09:31:17.207Z,280
2017-09-11T09:32:17.837Z,290
2017-09-11T09:33:17.185Z,260
2017-09-11T09:34:17.493Z,250
2017-09-11T09:35:17.168Z,200
2017-09-11T09:36:17.150Z,160
2017-09-11T09:37:16.823Z,105
2017-09-11T09:38:16.809Z,85
2017-09-11T09:39:17.440Z,80
2017-09-11T09:40:17.103Z,90
2017-09-11T09:41:17.412Z,100
2017-09-11T09:42:17.410Z,90
2017-09-11T09:43:17.071Z,95
2017-09-11T09:44:17.058Z,105
2017-09-11T09:45:17.376Z,105
2017-09-11T09:46:17.363Z,125
2017-09-11T09:47:17.025Z,190
2017-09-11T09:48:17.336Z,205
2017-09-11T09:49:16.358Z,225
2017-09-11T09:50:16.987Z,350
2017-09-11T09:51:16.716Z,405
2017-09-11T09:52:16.966Z,380
2017-09-11T09:53:17.287Z,400
2017-09-11T09:54:16.941Z,385
2017-09-11T09:55:16.933Z,335
2017-09-11T09:56:16.930Z,320
2017-09-11T09:57:17.237Z,280
2017-09-11T09:58:16.252Z,285
2017-09-11T09:59:16.889Z,300
2017-09-11T10:00:17.225Z,230
2017-09-11T10:01:16.535Z,170
2017-09-11T10:02:16.858Z,165
2017-09-11T10:03:16.839Z,220
2017-09-11T10:04:16.834Z,265
2017-09-11T10:05:16.829Z,250
2017-09-11T10:06:16.820Z,245
2017-09-11T10:07:16.158Z,175
2017-09-11T10:08:16.790Z,110
2017-09-11T10:09:16.450Z,100
2017-09-11T10:10:17.084Z,100
2017-09-11T10:11:17.091Z,140
2017-09-11T10:12:16.750Z,200
2017-09-11T10:13:17.065Z,250
2017-09-11T10:14:16.721Z,260
2017-09-11T10:15:17.354Z,250
2017-09-11T10:16:16.378Z,255
2017-09-11T10:17:16.694Z,255
2017-09-11T10:18:16.670Z,205
2017-09-11T10:19:16.979Z,160
2017-09-11T10:20:16.972Z,130
2017-09-11T10:21:15.994Z,105
2017-09-11T10:22:16.943Z,90
2017-09-11T10:23:16.611Z,105
2017-09-11T10:24:16.835Z,115
2017-09-11T10:25:16.589Z,115
2017-09-11T10:26:17.215Z,120
2017-09-11T10:27:16.566Z,130
2017-09-11T10:28:17.207Z,170
2017-09-11T10:29:17.179Z,215
2017-09-11T10:30:16.535Z,255
2017-09-11T10:31:16.839Z,275
2017-09-11T10:32:16.510Z,285
2017-09-11T10:33:16.832Z,275
2017-09-11T10:34:16.171Z,385
2017-09-11T10:35:16.796Z,295
2017-09-11T10:36:16.501Z,220
2017-09-11T10:37:16.516Z,200
2017-09-11T10:38:16.453Z,250
2017-09-11T10:39:16.427Z,625
2017-09-11T10:40:16.431Z,300
2017-09-11T10:41:16.413Z,300
2017-09-11T10:42:16.722Z,255
2017-09-11T10:43:17.035Z,220
2017-09-11T10:44:16.379Z,145
2017-09-11T10:45:16.049Z,100
2017-09-11T10:46:17.001Z,80
2017-09-11T10:47:16.981Z,55
2017-09-11T10:48:16.325Z,55
2017-09-11T10:49:16.655Z,55
2017-09-11T10:50:15.665Z,65
2017-09-11T10:51:16.625Z,75
2017-09-11T10:52:16.612Z,85
2017-09-11T10:53:16.931Z,90
2017-09-11T10:54:16.587Z,105
2017-09-11T10:55:16.587Z,100
2017-09-11T10:56:16.247Z,85
2017-09-11T10:57:16.562Z,70
2017-09-11T10:58:16.879Z,70
2017-09-11T10:59:15.889Z,80
2017-09-11T11:00:16.848Z,70
2017-09-11T11:01:16.532Z,65
2017-09-11T11:02:16.187Z,65
2017-09-11T11:03:16.483Z,60
2017-09-11T11:04:16.156Z,65
2017-09-11T11:05:15.814Z,80
2017-09-11T11:06:16.459Z,110
2017-09-11T11:07:16.112Z,150
2017-09-11T11:08:15.780Z,215
2017-09-11T11:09:16.100Z,260
2017-09-11T11:10:16.080Z,270
2017-09-11T11:11:16.105Z,215
2017-09-11T11:12:16.367Z,325
2017-09-11T11:13:16.693Z,915
2017-09-11T11:14:16.025Z,1720
2017-09-11T11:15:16.361Z,1805
2017-09-11T11:16:15.995Z,1655
2017-09-11T11:17:16.655Z,245
2017-09-11T11:18:15.974Z,1290
2017-09-11T11:19:16.605Z,1350
2017-09-11T11:20:15.946Z,1700
2017-09-11T11:21:15.618Z,1690
2017-09-11T11:22:15.932Z,840
2017-09-11T11:23:15.614Z,825
2017-09-11T11:24:15.962Z,250
2017-09-11T11:25:15.925Z,330
2017-09-11T11:26:15.571Z,1225
2017-09-11T11:27:15.240Z,1345
2017-09-11T11:28:15.877Z,1245
2017-09-11T11:29:16.200Z,1485
2017-09-11T11:30:15.555Z,1670
2017-09-11T11:31:16.191Z,1680
2017-09-11T11:32:15.871Z,1730
2017-09-11T11:33:15.848Z,1670
2017-09-11T11:34:15.518Z,1670
2017-09-11T11:35:16.151Z,1625
2017-09-11T11:36:15.837Z,415
2017-09-11T11:37:15.836Z,1910
2017-09-11T11:38:16.452Z,1055
2017-09-11T11:39:15.807Z,950
2017-09-11T11:40:15.809Z,385
2017-09-11T11:41:16.126Z,345
2017-09-11T11:42:16.114Z,1430
2017-09-11T11:43:15.801Z,540
2017-09-11T11:44:15.814Z,520
2017-09-11T11:45:15.493Z,510
2017-09-11T11:46:16.092Z,1565
2017-09-11T11:47:16.095Z,2040
2017-09-11T11:48:15.765Z,705
2017-09-11T11:49:16.089Z,670
2017-09-11T11:50:16.391Z,880
2017-09-11T11:51:16.100Z,215
2017-09-11T11:52:15.742Z,165
2017-09-11T11:53:15.416Z,190
2017-09-11T11:54:16.061Z,1065
2017-09-11T11:55:16.056Z,245
2017-09-11T11:56:16.041Z,220
2017-09-11T11:57:16.046Z,250
2017-09-11T11:58:15.404Z,290
2017-09-11T11:59:15.439Z,510
2017-09-11T12:00:15.703Z,1775
2017-09-11T12:01:15.693Z,160
2017-09-11T12:02:15.682Z,145
2017-09-11T12:03:15.682Z,105
2017-09-11T12:04:16.001Z,105
2017-09-11T12:05:15.985Z,155
2017-09-11T12:06:15.336Z,370
2017-09-11T12:07:15.969Z,370
2017-09-11T12:08:15.322Z,485
2017-09-11T12:09:15.625Z,2125
2017-09-11T12:10:15.951Z,720
2017-09-11T12:11:15.939Z,335
2017-09-11T12:12:15.296Z,2025
2017-09-11T12:13:16.253Z,595
2017-09-11T12:14:15.598Z,2015
2017-09-11T12:15:15.273Z,305
2017-09-11T12:16:15.585Z,1920
2017-09-11T12:17:15.909Z,315
2017-09-11T12:18:15.882Z,240
2017-09-11T12:19:15.254Z,280
2017-09-11T12:20:15.570Z,250
2017-09-11T12:21:15.227Z,285
2017-09-11T12:22:15.557Z,285
2017-09-11T12:23:15.543Z,235
2017-09-11T12:24:15.772Z,185
2017-09-11T12:25:15.525Z,170
2017-09-11T12:26:15.850Z,195
2017-09-11T12:27:15.193Z,220
2017-09-11T12:28:15.507Z,170
2017-09-11T12:29:15.495Z,105
2017-09-11T12:30:15.491Z,95
2017-09-11T12:31:15.799Z,115
2017-09-11T12:32:15.475Z,120
2017-09-11T12:33:15.138Z,85
2017-09-11T12:34:15.136Z,85
2017-09-11T12:35:15.777Z,85
2017-09-11T12:36:16.084Z,120
2017-09-11T12:37:15.430Z,185
2017-09-11T12:38:15.742Z,385
2017-09-11T12:39:16.051Z,425
2017-09-11T12:40:15.390Z,330
2017-09-11T12:41:15.085Z,325
2017-09-11T12:42:15.718Z,300
2017-09-11T12:43:16.011Z,220
2017-09-11T12:44:15.367Z,155
2017-09-11T12:45:15.033Z,115
2017-09-11T12:46:15.670Z,140
2017-09-11T12:47:15.331Z,150
2017-09-11T12:48:15.004Z,145
2017-09-11T12:49:15.304Z,80
2017-09-11T12:50:15.619Z,70
2017-09-11T12:51:15.301Z,70
2017-09-11T12:52:15.604Z,100
2017-09-11T12:53:15.599Z,230
2017-09-11T12:54:15.575Z,170
2017-09-11T12:55:15.579Z,160
2017-09-11T12:56:15.562Z,115
2017-09-11T12:57:14.918Z,130
2017-09-11T12:58:14.579Z,1125
2017-09-11T12:59:14.906Z,355
2017-09-11T13:00:15.204Z,440
2017-09-11T13:01:14.870Z,795
2017-09-11T13:02:15.818Z,1395
2017-09-11T13:03:15.172Z,1390
2017-09-11T13:04:15.519Z,1420
2017-09-11T13:05:14.834Z,1350
2017-09-11T13:06:15.465Z,1275
2017-09-11T13:07:15.132Z,1240
2017-09-11T13:08:14.804Z,1265
2017-09-11T13:09:15.772Z,1290
2017-09-11T13:10:14.796Z,1330
2017-09-11T13:11:15.116Z,405
2017-09-11T13:12:14.779Z,125
2017-09-11T13:13:15.104Z,110
2017-09-11T13:14:15.734Z,90
2017-09-11T13:15:15.079Z,85
2017-09-11T13:16:14.438Z,80
2017-09-11T13:17:15.075Z,75
2017-09-11T13:18:15.075Z,65
2017-09-11T13:19:15.707Z,90
2017-09-11T13:20:15.074Z,150
2017-09-11T13:21:15.054Z,610
2017-09-11T13:22:15.044Z,400
2017-09-11T13:23:15.052Z,545
2017-09-11T13:24:15.035Z,1805
2017-09-11T13:25:15.340Z,1695
2017-09-11T13:26:15.016Z,1545
2017-09-11T13:27:14.693Z,1500
2017-09-11T13:28:15.326Z,1470
2017-09-11T13:29:15.329Z,630
2017-09-11T13:30:15.349Z,625
2017-09-11T13:31:14.707Z,1410
2017-09-11T13:32:15.305Z,370
2017-09-11T13:33:14.336Z,235
2017-09-11T13:34:14.653Z,200
2017-09-11T13:35:15.607Z,190
2017-09-11T13:36:15.283Z,195
2017-09-11T13:37:15.279Z,190
2017-09-11T13:38:15.272Z,165
2017-09-11T13:39:14.945Z,155
2017-09-11T13:40:15.580Z,160
2017-09-11T13:41:15.256Z,185
2017-09-11T13:42:14.929Z,205
2017-09-11T13:43:14.919Z,170
2017-09-11T13:44:14.592Z,185
2017-09-11T13:45:14.588Z,165
2017-09-11T13:46:14.911Z,110
2017-09-11T13:47:14.896Z,95
2017-09-11T13:48:14.887Z,75
2017-09-11T13:49:15.205Z,50
2017-09-11T13:50:14.867Z,45
2017-09-11T13:51:14.882Z,60
2017-09-11T13:52:14.855Z,80
2017-09-11T13:53:15.163Z,95
2017-09-11T13:54:14.865Z,110
2017-09-11T13:55:15.196Z,130
2017-09-11T13:56:14.507Z,165
2017-09-11T13:57:14.492Z,225
2017-09-11T13:58:15.142Z,1185
2017-09-11T13:59:15.120Z,290
2017-09-11T14:00:15.110Z,195
2017-09-11T14:01:15.102Z,145
2017-09-11T14:02:14.763Z,155
2017-09-11T14:03:14.432Z,160
2017-09-11T14:04:15.072Z,160
2017-09-11T14:05:15.070Z,220
2017-09-11T14:06:14.407Z,295
2017-09-11T14:07:15.048Z,1110
2017-09-11T14:08:14.723Z,580
2017-09-11T14:09:14.700Z,545
2017-09-11T14:10:14.691Z,1135
2017-09-11T14:11:15.015Z,1445
2017-09-11T14:12:14.359Z,1450